Impacts TAF Board INFO
FOR SITUATIONAL AWARENESS. NOT TO BE USED FOR FLIGHT PLANNING PURPOSES.
IDs:

KCLE - Cleveland/Hopkins In, OH, US

Issued at 0307 UTC 11 Dec 2017
Updated at 0403 UTC 11 Dec 2017
Potential Impact None Slight Moderate High
Time0351Z 11/05Z 11/06Z 11/07Z 11/08Z 11/09Z 11/10Z 11/11Z 11/12Z 11/13Z 11/14Z 11/15Z 11/16Z 11/17Z>>
Type OBS PRVL PRVL
  [TEMP]  
PRVL
  [TEMP]  
PRVL
  [TEMP]  
PRVL
  [TEMP]  
PRVL PRVL PRVL PRVL PRVL PRVL PRVL PRVL
VIS 9 >6 >6
  [3]  
>6
  [3]  
>6
  [3]  
>6
  [3]  
>6 >6 >6 >6 >6 >6 >6 >6
CIG 31 25 25
  [15]  
25
  [15]  
25
  [15]  
25
  [15]  
15 15 15 15 15 15 15 15
Cover OVC OVC OVC
  [OVC]  
OVC
  [OVC]  
OVC
  [OVC]  
OVC
  [OVC]  
OVC OVC OVC OVC OVC OVC OVC OVC
FltCat VFR MVFR MVFR
  [MVFR]  
MVFR
  [MVFR]  
MVFR
  [MVFR]  
MVFR
  [MVFR]  
MVFR MVFR MVFR MVFR MVFR MVFR MVFR MVFR
WX -SN VCSH VCSH
  [-SHSN]  
VCSH
  [-SHSN]  
VCSH
  [-SHSN]  
VCSH
  [-SHSN]  
-- -- -- -- -- -- -- --
WDir 230 280 280
[280]
280
[280]
280
[280]
280
[280]
250 250 250 250 250 250 250 250
WSpd 8 8 8
  [8]  
8
  [8]  
8
  [8]  
8
  [8]  
5 5 5 5 5 5 5 5
WGst -- -- --
  [--]  
--
  [--]  
--
  [--]  
--
  [--]  
-- -- -- -- -- -- -- --

Raw TAF
KCLE 110307Z 1103/1206 24010KT P6SM FEW025 OVC035
  FM110500 28008KT P6SM VCSH SCT015 OVC025
  TEMPO 1106/1110 3SM -SHSN OVC015
  FM111000 25005KT P6SM BKN015 OVC035
  FM111900 19008KT P6SM SCT025 OVC040
  FM120100 19008KT 5SM -SN SCT025 OVC035


Raw METAR
KCLE 110351Z 23008KT 9SM -SN BKN031 OVC040 M01/M06 A2998 RMK AO2 SLP160 P0000 T10061061 $
KCLE 110251Z 23012KT 9SM -SN OVC032 M01/M06 A2998 RMK AO2 SLP161 P0000 60000 T10061061 58001 $
KCLE 110151Z 23009KT 10SM -SN OVC033 M01/M07 A2998 RMK AO2 SNB47 SLP163 P0000 T10061067 $

METAR Board
Radar Display
Forecast Discussion

FOR SITUATIONAL AWARENESS. NOT TO BE USED FOR FLIGHT PLANNING PURPOSES.